sensor_id;sensor_type;location;lat;lon;timestamp;P1;durP1;ratioP1;P2;durP2;ratioP2
74100;SDS011;62462;52.530;21.682;2023-03-23T00:01:19;24.23;;;12.38;;
74100;SDS011;62462;52.530;21.682;2023-03-23T00:03:50;26.48;;;13.13;;
74100;SDS011;62462;52.530;21.682;2023-03-23T00:06:18;20.88;;;12.82;;
74100;SDS011;62462;52.530;21.682;2023-03-23T00:08:45;23.27;;;12.93;;
74100;SDS011;62462;52.530;21.682;2023-03-23T00:11:17;22.45;;;12.90;;
74100;SDS011;62462;52.530;21.682;2023-03-23T00:13:47;27.00;;;14.45;;
74100;SDS011;62462;52.530;21.682;2023-03-23T00:16:19;25.38;;;13.73;;
74100;SDS011;62462;52.530;21.682;2023-03-23T00:18:54;26.75;;;14.02;;
74100;SDS011;62462;52.530;21.682;2023-03-23T00:21:25;23.88;;;13.55;;
74100;SDS011;62462;52.530;21.682;2023-03-23T00:24:14;27.33;;;13.80;;
74100;SDS011;62462;52.530;21.682;2023-03-23T00:26:43;26.00;;;14.03;;
74100;SDS011;62462;52.530;21.682;2023-03-23T00:29:14;27.58;;;14.50;;
74100;SDS011;62462;52.530;21.682;2023-03-23T00:31:51;24.38;;;13.82;;
74100;SDS011;62462;52.530;21.682;2023-03-23T00:34:18;26.73;;;14.00;;
74100;SDS011;62462;52.530;21.682;2023-03-23T00:36:46;25.05;;;14.10;;
74100;SDS011;62462;52.530;21.682;2023-03-23T00:39:14;25.75;;;13.27;;
74100;SDS011;62462;52.530;21.682;2023-03-23T00:41:41;24.98;;;13.48;;
74100;SDS011;62462;52.530;21.682;2023-03-23T00:44:08;24.15;;;13.95;;
74100;SDS011;62462;52.530;21.682;2023-03-23T00:46:34;24.02;;;13.73;;
74100;SDS011;62462;52.530;21.682;2023-03-23T00:49:10;25.40;;;13.40;;
74100;SDS011;62462;52.530;21.682;2023-03-23T00:51:37;24.73;;;13.90;;
74100;SDS011;62462;52.530;21.682;2023-03-23T00:54:04;25.45;;;14.57;;
74100;SDS011;62462;52.530;21.682;2023-03-23T00:56:30;25.25;;;13.65;;
74100;SDS011;62462;52.530;21.682;2023-03-23T00:58:56;22.92;;;13.52;;
74100;SDS011;62462;52.530;21.682;2023-03-23T01:01:21;26.92;;;13.50;;
74100;SDS011;62462;52.530;21.682;2023-03-23T01:03:48;25.00;;;13.38;;
74100;SDS011;62462;52.530;21.682;2023-03-23T01:06:14;26.90;;;14.00;;
74100;SDS011;62462;52.530;21.682;2023-03-23T01:08:41;23.10;;;12.75;;
74100;SDS011;62462;52.530;21.682;2023-03-23T01:11:13;22.95;;;12.88;;
74100;SDS011;62462;52.530;21.682;2023-03-23T01:13:43;24.60;;;13.55;;
74100;SDS011;62462;52.530;21.682;2023-03-23T01:16:10;24.73;;;13.73;;
74100;SDS011;62462;52.530;21.682;2023-03-23T01:18:36;23.83;;;12.68;;
74100;SDS011;62462;52.530;21.682;2023-03-23T01:21:09;25.55;;;14.40;;
74100;SDS011;62462;52.530;21.682;2023-03-23T01:26:03;23.42;;;13.27;;
74100;SDS011;62462;52.530;21.682;2023-03-23T01:28:32;28.35;;;14.98;;
74100;SDS011;62462;52.530;21.682;2023-03-23T01:31:02;30.30;;;15.82;;
74100;SDS011;62462;52.530;21.682;2023-03-23T01:33:30;40.50;;;18.73;;
74100;SDS011;62462;52.530;21.682;2023-03-23T01:35:57;36.13;;;17.58;;
74100;SDS011;62462;52.530;21.682;2023-03-23T01:38:27;33.25;;;16.20;;
74100;SDS011;62462;52.530;21.682;2023-03-23T01:40:52;32.55;;;15.70;;
74100;SDS011;62462;52.530;21.682;2023-03-23T01:43:18;24.13;;;14.60;;
74100;SDS011;62462;52.530;21.682;2023-03-23T01:45:44;25.95;;;14.73;;
74100;SDS011;62462;52.530;21.682;2023-03-23T01:50:42;26.33;;;14.75;;
74100;SDS011;62462;52.530;21.682;2023-03-23T01:53:17;25.45;;;13.63;;
74100;SDS011;62462;52.530;21.682;2023-03-23T01:55:45;27.08;;;13.82;;
74100;SDS011;62462;52.530;21.682;2023-03-23T01:58:16;23.30;;;13.73;;
74100;SDS011;62462;52.530;21.682;2023-03-23T02:00:46;24.25;;;13.35;;
74100;SDS011;62462;52.530;21.682;2023-03-23T02:03:12;28.10;;;14.07;;
74100;SDS011;62462;52.530;21.682;2023-03-23T02:05:42;26.90;;;14.40;;
74100;SDS011;62462;52.530;21.682;2023-03-23T02:08:09;25.05;;;13.77;;
74100;SDS011;62462;52.530;21.682;2023-03-23T02:10:38;23.92;;;13.73;;
74100;SDS011;62462;52.530;21.682;2023-03-23T02:13:05;22.23;;;12.57;;
74100;SDS011;62462;52.530;21.682;2023-03-23T02:15:44;26.08;;;14.27;;
74100;SDS011;62462;52.530;21.682;2023-03-23T02:23:47;28.13;;;14.40;;
74100;SDS011;62462;52.530;21.682;2023-03-23T02:27:03;28.02;;;14.45;;
74100;SDS011;62462;52.530;21.682;2023-03-23T02:37:26;28.95;;;14.32;;
74100;SDS011;62462;52.530;21.682;2023-03-23T02:40:12;28.40;;;15.20;;
74100;SDS011;62462;52.530;21.682;2023-03-23T02:42:43;26.05;;;14.35;;
74100;SDS011;62462;52.530;21.682;2023-03-23T02:45:14;27.83;;;13.85;;
74100;SDS011;62462;52.530;21.682;2023-03-23T02:47:42;27.00;;;14.02;;
74100;SDS011;62462;52.530;21.682;2023-03-23T02:50:13;25.42;;;13.40;;
74100;SDS011;62462;52.530;21.682;2023-03-23T02:52:41;28.15;;;14.35;;
74100;SDS011;62462;52.530;21.682;2023-03-23T02:55:09;25.75;;;14.10;;
74100;SDS011;62462;52.530;21.682;2023-03-23T02:57:37;29.77;;;15.32;;
74100;SDS011;62462;52.530;21.682;2023-03-23T03:00:04;24.55;;;14.60;;
74100;SDS011;62462;52.530;21.682;2023-03-23T03:02:38;30.45;;;14.95;;
74100;SDS011;62462;52.530;21.682;2023-03-23T03:09:02;27.55;;;14.27;;
74100;SDS011;62462;52.530;21.682;2023-03-23T03:11:08;26.52;;;14.73;;
74100;SDS011;62462;52.530;21.682;2023-03-23T03:13:47;27.92;;;13.65;;
74100;SDS011;62462;52.530;21.682;2023-03-23T03:19:42;31.25;;;15.75;;
74100;SDS011;62462;52.530;21.682;2023-03-23T03:22:11;27.75;;;14.18;;
74100;SDS011;62462;52.530;21.682;2023-03-23T03:24:38;28.30;;;14.32;;
74100;SDS011;62462;52.530;21.682;2023-03-23T03:27:10;25.13;;;13.65;;
74100;SDS011;62462;52.530;21.682;2023-03-23T03:29:40;30.15;;;14.43;;
74100;SDS011;62462;52.530;21.682;2023-03-23T03:32:08;30.50;;;16.17;;
74100;SDS011;62462;52.530;21.682;2023-03-23T03:34:38;28.33;;;15.73;;
74100;SDS011;62462;52.530;21.682;2023-03-23T03:37:04;28.83;;;15.55;;
74100;SDS011;62462;52.530;21.682;2023-03-23T03:39:34;27.33;;;15.40;;
74100;SDS011;62462;52.530;21.682;2023-03-23T03:42:02;34.92;;;15.95;;
74100;SDS011;62462;52.530;21.682;2023-03-23T03:44:28;28.05;;;14.85;;
74100;SDS011;62462;52.530;21.682;2023-03-23T03:46:54;26.45;;;14.65;;
74100;SDS011;62462;52.530;21.682;2023-03-23T03:49:20;29.65;;;15.10;;
74100;SDS011;62462;52.530;21.682;2023-03-23T03:51:47;24.88;;;14.85;;
74100;SDS011;62462;52.530;21.682;2023-03-23T03:54:13;26.48;;;16.40;;
74100;SDS011;62462;52.530;21.682;2023-03-23T03:56:39;28.05;;;16.15;;
74100;SDS011;62462;52.530;21.682;2023-03-23T03:59:08;31.80;;;15.55;;
74100;SDS011;62462;52.530;21.682;2023-03-23T04:01:36;29.80;;;16.05;;
74100;SDS011;62462;52.530;21.682;2023-03-23T04:04:02;27.77;;;14.65;;
74100;SDS011;62462;52.530;21.682;2023-03-23T04:06:29;31.45;;;15.82;;
74100;SDS011;62462;52.530;21.682;2023-03-23T04:08:57;31.38;;;16.20;;
74100;SDS011;62462;52.530;21.682;2023-03-23T04:11:24;31.58;;;16.65;;
74100;SDS011;62462;52.530;21.682;2023-03-23T04:13:51;31.35;;;17.27;;
74100;SDS011;62462;52.530;21.682;2023-03-23T04:16:17;27.45;;;15.77;;
74100;SDS011;62462;52.530;21.682;2023-03-23T04:18:43;29.85;;;15.98;;
74100;SDS011;62462;52.530;21.682;2023-03-23T04:21:10;30.25;;;16.13;;
74100;SDS011;62462;52.530;21.682;2023-03-23T04:23:36;30.88;;;16.65;;
74100;SDS011;62462;52.530;21.682;2023-03-23T04:26:02;33.35;;;17.88;;
74100;SDS011;62462;52.530;21.682;2023-03-23T04:28:29;26.95;;;15.73;;
74100;SDS011;62462;52.530;21.682;2023-03-23T04:30:59;31.77;;;15.90;;
74100;SDS011;62462;52.530;21.682;2023-03-23T04:33:26;30.27;;;16.52;;
74100;SDS011;62462;52.530;21.682;2023-03-23T04:35:54;32.13;;;16.70;;
74100;SDS011;62462;52.530;21.682;2023-03-23T04:38:21;27.73;;;15.90;;
74100;SDS011;62462;52.530;21.682;2023-03-23T04:40:50;26.38;;;15.38;;
74100;SDS011;62462;52.530;21.682;2023-03-23T04:43:18;35.65;;;18.52;;
74100;SDS011;62462;52.530;21.682;2023-03-23T04:45:46;26.98;;;16.00;;
74100;SDS011;62462;52.530;21.682;2023-03-23T04:48:22;28.52;;;16.95;;
74100;SDS011;62462;52.530;21.682;2023-03-23T04:50:48;30.10;;;16.60;;
74100;SDS011;62462;52.530;21.682;2023-03-23T04:53:16;29.60;;;16.65;;
74100;SDS011;62462;52.530;21.682;2023-03-23T04:55:43;29.70;;;17.02;;
74100;SDS011;62462;52.530;21.682;2023-03-23T04:58:09;27.08;;;15.70;;
74100;SDS011;62462;52.530;21.682;2023-03-23T05:00:37;39.53;;;17.55;;
74100;SDS011;62462;52.530;21.682;2023-03-23T05:03:03;31.77;;;16.67;;
74100;SDS011;62462;52.530;21.682;2023-03-23T05:05:31;30.05;;;16.20;;
74100;SDS011;62462;52.530;21.682;2023-03-23T05:07:57;27.80;;;16.38;;
74100;SDS011;62462;52.530;21.682;2023-03-23T05:10:23;28.30;;;16.15;;
74100;SDS011;62462;52.530;21.682;2023-03-23T05:12:49;25.52;;;14.73;;
74100;SDS011;62462;52.530;21.682;2023-03-23T05:15:15;32.90;;;17.25;;
74100;SDS011;62462;52.530;21.682;2023-03-23T05:17:42;27.60;;;16.23;;
74100;SDS011;62462;52.530;21.682;2023-03-23T05:20:14;27.02;;;15.70;;
74100;SDS011;62462;52.530;21.682;2023-03-23T05:25:12;29.92;;;15.90;;
74100;SDS011;62462;52.530;21.682;2023-03-23T05:27:39;30.73;;;16.63;;
74100;SDS011;62462;52.530;21.682;2023-03-23T05:30:08;28.55;;;16.00;;
74100;SDS011;62462;52.530;21.682;2023-03-23T05:32:35;34.78;;;16.80;;
74100;SDS011;62462;52.530;21.682;2023-03-23T05:35:02;28.75;;;16.65;;
74100;SDS011;62462;52.530;21.682;2023-03-23T05:37:29;31.25;;;16.77;;
74100;SDS011;62462;52.530;21.682;2023-03-23T05:39:59;29.27;;;16.50;;
74100;SDS011;62462;52.530;21.682;2023-03-23T05:42:30;29.50;;;16.50;;
74100;SDS011;62462;52.530;21.682;2023-03-23T05:45:03;31.83;;;16.95;;
74100;SDS011;62462;52.530;21.682;2023-03-23T05:47:30;29.75;;;16.58;;
74100;SDS011;62462;52.530;21.682;2023-03-23T05:49:57;27.00;;;16.27;;
74100;SDS011;62462;52.530;21.682;2023-03-23T05:52:24;29.80;;;16.25;;
74100;SDS011;62462;52.530;21.682;2023-03-23T05:54:50;27.85;;;15.98;;
74100;SDS011;62462;52.530;21.682;2023-03-23T05:57:16;26.25;;;15.55;;
74100;SDS011;62462;52.530;21.682;2023-03-23T05:59:43;31.92;;;16.88;;
74100;SDS011;62462;52.530;21.682;2023-03-23T06:02:10;28.52;;;15.38;;
74100;SDS011;62462;52.530;21.682;2023-03-23T06:04:36;27.08;;;15.80;;
74100;SDS011;62462;52.530;21.682;2023-03-23T06:07:03;30.25;;;16.05;;
74100;SDS011;62462;52.530;21.682;2023-03-23T06:09:29;28.02;;;15.75;;
74100;SDS011;62462;52.530;21.682;2023-03-23T06:11:55;28.30;;;16.13;;
74100;SDS011;62462;52.530;21.682;2023-03-23T06:14:22;27.42;;;15.43;;
74100;SDS011;62462;52.530;21.682;2023-03-23T06:16:48;29.75;;;16.35;;
74100;SDS011;62462;52.530;21.682;2023-03-23T06:19:14;25.52;;;15.43;;
74100;SDS011;62462;52.530;21.682;2023-03-23T06:21:40;26.15;;;15.27;;
74100;SDS011;62462;52.530;21.682;2023-03-23T06:24:07;28.70;;;15.43;;
74100;SDS011;62462;52.530;21.682;2023-03-23T06:26:35;29.77;;;15.07;;
74100;SDS011;62462;52.530;21.682;2023-03-23T06:29:02;26.67;;;15.80;;
74100;SDS011;62462;52.530;21.682;2023-03-23T06:31:36;26.15;;;14.70;;
74100;SDS011;62462;52.530;21.682;2023-03-23T06:34:08;28.63;;;15.38;;
74100;SDS011;62462;52.530;21.682;2023-03-23T06:36:35;33.15;;;15.98;;
74100;SDS011;62462;52.530;21.682;2023-03-23T06:39:02;28.38;;;15.85;;
74100;SDS011;62462;52.530;21.682;2023-03-23T06:41:29;26.27;;;14.73;;
74100;SDS011;62462;52.530;21.682;2023-03-23T06:43:59;26.67;;;14.70;;
74100;SDS011;62462;52.530;21.682;2023-03-23T06:46:26;25.10;;;13.80;;
74100;SDS011;62462;52.530;21.682;2023-03-23T06:48:53;26.25;;;14.13;;
74100;SDS011;62462;52.530;21.682;2023-03-23T06:51:19;26.52;;;14.70;;
74100;SDS011;62462;52.530;21.682;2023-03-23T06:53:45;24.38;;;14.23;;
74100;SDS011;62462;52.530;21.682;2023-03-23T06:56:11;29.48;;;13.95;;
74100;SDS011;62462;52.530;21.682;2023-03-23T06:58:38;22.13;;;13.45;;
74100;SDS011;62462;52.530;21.682;2023-03-23T07:01:07;24.95;;;13.18;;
74100;SDS011;62462;52.530;21.682;2023-03-23T07:03:34;24.92;;;13.07;;
74100;SDS011;62462;52.530;21.682;2023-03-23T07:06:00;24.52;;;13.43;;
74100;SDS011;62462;52.530;21.682;2023-03-23T07:08:26;24.55;;;13.55;;
74100;SDS011;62462;52.530;21.682;2023-03-23T07:10:53;23.30;;;13.27;;
74100;SDS011;62462;52.530;21.682;2023-03-23T07:13:20;21.38;;;13.10;;
74100;SDS011;62462;52.530;21.682;2023-03-23T07:15:46;23.55;;;12.73;;
74100;SDS011;62462;52.530;21.682;2023-03-23T07:18:13;20.77;;;12.88;;
74100;SDS011;62462;52.530;21.682;2023-03-23T07:20:39;20.63;;;13.13;;
74100;SDS011;62462;52.530;21.682;2023-03-23T07:23:04;25.17;;;12.82;;
74100;SDS011;62462;52.530;21.682;2023-03-23T07:25:31;19.15;;;11.75;;
74100;SDS011;62462;52.530;21.682;2023-03-23T07:27:58;23.55;;;12.43;;
74100;SDS011;62462;52.530;21.682;2023-03-23T07:30:26;23.85;;;12.60;;
74100;SDS011;62462;52.530;21.682;2023-03-23T07:32:52;21.95;;;12.07;;
74100;SDS011;62462;52.530;21.682;2023-03-23T07:35:18;21.00;;;12.00;;
74100;SDS011;62462;52.530;21.682;2023-03-23T07:37:44;20.20;;;11.85;;
74100;SDS011;62462;52.530;21.682;2023-03-23T07:40:10;22.58;;;12.27;;
74100;SDS011;62462;52.530;21.682;2023-03-23T07:42:43;18.38;;;11.55;;
74100;SDS011;62462;52.530;21.682;2023-03-23T07:45:11;21.08;;;11.48;;
74100;SDS011;62462;52.530;21.682;2023-03-23T07:47:38;19.55;;;11.38;;
74100;SDS011;62462;52.530;21.682;2023-03-23T07:50:05;20.45;;;11.68;;
74100;SDS011;62462;52.530;21.682;2023-03-23T07:52:33;18.52;;;10.50;;
74100;SDS011;62462;52.530;21.682;2023-03-23T07:55:01;21.35;;;11.10;;
74100;SDS011;62462;52.530;21.682;2023-03-23T07:57:29;16.48;;;9.60;;
74100;SDS011;62462;52.530;21.682;2023-03-23T07:59:56;16.75;;;9.82;;
74100;SDS011;62462;52.530;21.682;2023-03-23T08:02:23;17.98;;;9.20;;
74100;SDS011;62462;52.530;21.682;2023-03-23T08:04:49;15.05;;;8.45;;
74100;SDS011;62462;52.530;21.682;2023-03-23T08:07:16;17.17;;;9.82;;
74100;SDS011;62462;52.530;21.682;2023-03-23T08:09:44;14.90;;;8.90;;
74100;SDS011;62462;52.530;21.682;2023-03-23T08:12:10;14.65;;;8.38;;
74100;SDS011;62462;52.530;21.682;2023-03-23T08:14:37;14.98;;;9.23;;
74100;SDS011;62462;52.530;21.682;2023-03-23T08:17:03;13.70;;;8.50;;
74100;SDS011;62462;52.530;21.682;2023-03-23T08:19:29;14.88;;;8.68;;
74100;SDS011;62462;52.530;21.682;2023-03-23T08:21:55;17.55;;;8.85;;
74100;SDS011;62462;52.530;21.682;2023-03-23T08:24:22;15.10;;;8.00;;
74100;SDS011;62462;52.530;21.682;2023-03-23T08:26:48;17.33;;;8.65;;
74100;SDS011;62462;52.530;21.682;2023-03-23T08:29:14;12.52;;;7.65;;
74100;SDS011;62462;52.530;21.682;2023-03-23T08:31:41;11.93;;;7.88;;
74100;SDS011;62462;52.530;21.682;2023-03-23T08:34:07;12.65;;;7.78;;
74100;SDS011;62462;52.530;21.682;2023-03-23T08:36:33;16.98;;;7.35;;
74100;SDS011;62462;52.530;21.682;2023-03-23T08:39:00;12.70;;;6.85;;
74100;SDS011;62462;52.530;21.682;2023-03-23T08:41:26;12.05;;;6.88;;
74100;SDS011;62462;52.530;21.682;2023-03-23T08:43:52;13.45;;;7.60;;
74100;SDS011;62462;52.530;21.682;2023-03-23T08:46:18;14.13;;;7.05;;
74100;SDS011;62462;52.530;21.682;2023-03-23T08:48:45;13.60;;;6.60;;
74100;SDS011;62462;52.530;21.682;2023-03-23T08:51:12;12.73;;;6.55;;
74100;SDS011;62462;52.530;21.682;2023-03-23T08:53:38;13.68;;;6.80;;
74100;SDS011;62462;52.530;21.682;2023-03-23T08:56:07;9.55;;;6.30;;
74100;SDS011;62462;52.530;21.682;2023-03-23T08:58:36;12.52;;;6.00;;
74100;SDS011;62462;52.530;21.682;2023-03-23T09:01:03;12.10;;;5.78;;
74100;SDS011;62462;52.530;21.682;2023-03-23T09:03:31;9.35;;;5.60;;
74100;SDS011;62462;52.530;21.682;2023-03-23T09:06:02;12.23;;;5.57;;
74100;SDS011;62462;52.530;21.682;2023-03-23T09:08:30;11.43;;;5.30;;
74100;SDS011;62462;52.530;21.682;2023-03-23T09:10:59;10.43;;;5.50;;
74100;SDS011;62462;52.530;21.682;2023-03-23T09:13:27;9.60;;;4.63;;
74100;SDS011;62462;52.530;21.682;2023-03-23T09:15:53;11.57;;;5.03;;
74100;SDS011;62462;52.530;21.682;2023-03-23T09:18:19;7.45;;;4.45;;
74100;SDS011;62462;52.530;21.682;2023-03-23T09:20:48;7.88;;;4.20;;
74100;SDS011;62462;52.530;21.682;2023-03-23T09:23:15;7.05;;;4.03;;
74100;SDS011;62462;52.530;21.682;2023-03-23T09:25:41;6.63;;;3.97;;
74100;SDS011;62462;52.530;21.682;2023-03-23T09:28:08;6.32;;;3.40;;
74100;SDS011;62462;52.530;21.682;2023-03-23T09:30:34;8.05;;;4.28;;
74100;SDS011;62462;52.530;21.682;2023-03-23T09:33:02;8.77;;;3.78;;
74100;SDS011;62462;52.530;21.682;2023-03-23T09:35:31;6.68;;;3.83;;
74100;SDS011;62462;52.530;21.682;2023-03-23T09:37:59;7.72;;;4.05;;
74100;SDS011;62462;52.530;21.682;2023-03-23T09:40:35;8.30;;;4.05;;
74100;SDS011;62462;52.530;21.682;2023-03-23T09:51:41;6.80;;;3.50;;
74100;SDS011;62462;52.530;21.682;2023-03-23T09:54:18;7.25;;;3.83;;
74100;SDS011;62462;52.530;21.682;2023-03-23T09:56:45;8.38;;;3.38;;
74100;SDS011;62462;52.530;21.682;2023-03-23T10:01:40;5.60;;;3.55;;
74100;SDS011;62462;52.530;21.682;2023-03-23T10:04:21;10.60;;;3.40;;
74100;SDS011;62462;52.530;21.682;2023-03-23T10:07:09;9.10;;;3.33;;
74100;SDS011;62462;52.530;21.682;2023-03-23T10:09:36;7.80;;;3.35;;
74100;SDS011;62462;52.530;21.682;2023-03-23T10:12:19;6.43;;;3.47;;
74100;SDS011;62462;52.530;21.682;2023-03-23T10:22:48;8.90;;;4.10;;
74100;SDS011;62462;52.530;21.682;2023-03-23T10:25:32;10.95;;;4.28;;
74100;SDS011;62462;52.530;21.682;2023-03-23T10:28:16;8.15;;;4.07;;
74100;SDS011;62462;52.530;21.682;2023-03-23T10:33:22;6.60;;;3.28;;
74100;SDS011;62462;52.530;21.682;2023-03-23T10:41:46;7.80;;;4.13;;
74100;SDS011;62462;52.530;21.682;2023-03-23T10:49:36;6.93;;;3.60;;
74100;SDS011;62462;52.530;21.682;2023-03-23T10:52:32;6.20;;;3.17;;
74100;SDS011;62462;52.530;21.682;2023-03-23T10:55:16;4.93;;;2.67;;
74100;SDS011;62462;52.530;21.682;2023-03-23T11:00:31;5.05;;;3.15;;
74100;SDS011;62462;52.530;21.682;2023-03-23T11:02:59;6.20;;;2.85;;
74100;SDS011;62462;52.530;21.682;2023-03-23T11:08:21;4.10;;;2.63;;
74100;SDS011;62462;52.530;21.682;2023-03-23T11:10:56;6.07;;;2.70;;
74100;SDS011;62462;52.530;21.682;2023-03-23T11:13:26;4.38;;;2.88;;
74100;SDS011;62462;52.530;21.682;2023-03-23T11:15:57;8.15;;;2.60;;
74100;SDS011;62462;52.530;21.682;2023-03-23T11:18:34;5.22;;;2.60;;
74100;SDS011;62462;52.530;21.682;2023-03-23T11:23:37;6.72;;;3.35;;
74100;SDS011;62462;52.530;21.682;2023-03-23T11:29:26;3.97;;;2.67;;
74100;SDS011;62462;52.530;21.682;2023-03-23T11:31:42;6.53;;;2.55;;
74100;SDS011;62462;52.530;21.682;2023-03-23T11:34:12;5.90;;;3.10;;
74100;SDS011;62462;52.530;21.682;2023-03-23T11:36:42;4.90;;;2.63;;
74100;SDS011;62462;52.530;21.682;2023-03-23T11:42:18;4.80;;;2.90;;
74100;SDS011;62462;52.530;21.682;2023-03-23T11:44:53;5.57;;;2.80;;
74100;SDS011;62462;52.530;21.682;2023-03-23T11:47:32;4.57;;;2.80;;
74100;SDS011;62462;52.530;21.682;2023-03-23T11:50:04;8.63;;;2.70;;
74100;SDS011;62462;52.530;21.682;2023-03-23T11:52:40;6.10;;;2.55;;
74100;SDS011;62462;52.530;21.682;2023-03-23T11:55:19;4.67;;;2.80;;
74100;SDS011;62462;52.530;21.682;2023-03-23T11:58:00;5.68;;;2.53;;
74100;SDS011;62462;52.530;21.682;2023-03-23T12:00:32;4.93;;;2.72;;
74100;SDS011;62462;52.530;21.682;2023-03-23T12:06:06;5.90;;;2.50;;
74100;SDS011;62462;52.530;21.682;2023-03-23T12:14:44;4.80;;;2.75;;
74100;SDS011;62462;52.530;21.682;2023-03-23T12:17:30;5.72;;;2.75;;
74100;SDS011;62462;52.530;21.682;2023-03-23T12:22:54;6.07;;;2.40;;
74100;SDS011;62462;52.530;21.682;2023-03-23T12:28:18;5.15;;;2.63;;
74100;SDS011;62462;52.530;21.682;2023-03-23T12:31:05;5.25;;;2.95;;
74100;SDS011;62462;52.530;21.682;2023-03-23T12:42:52;2.95;;;1.30;;
74100;SDS011;62462;52.530;21.682;2023-03-23T12:48:10;5.88;;;1.67;;
74100;SDS011;62462;52.530;21.682;2023-03-23T12:50:47;1.92;;;1.35;;
74100;SDS011;62462;52.530;21.682;2023-03-23T12:59:16;3.92;;;1.58;;
74100;SDS011;62462;52.530;21.682;2023-03-23T13:01:46;2.95;;;1.70;;
74100;SDS011;62462;52.530;21.682;2023-03-23T13:04:17;2.20;;;1.50;;
74100;SDS011;62462;52.530;21.682;2023-03-23T13:06:47;4.03;;;1.50;;
74100;SDS011;62462;52.530;21.682;2023-03-23T13:11:49;3.67;;;1.77;;
74100;SDS011;62462;52.530;21.682;2023-03-23T13:22:39;3.50;;;1.80;;
74100;SDS011;62462;52.530;21.682;2023-03-23T13:25:15;5.63;;;1.35;;
74100;SDS011;62462;52.530;21.682;2023-03-23T13:27:57;3.83;;;1.83;;
74100;SDS011;62462;52.530;21.682;2023-03-23T13:30:27;4.28;;;1.60;;
74100;SDS011;62462;52.530;21.682;2023-03-23T13:33:04;5.95;;;2.28;;
74100;SDS011;62462;52.530;21.682;2023-03-23T13:35:35;3.78;;;1.85;;
74100;SDS011;62462;52.530;21.682;2023-03-23T13:38:11;3.33;;;1.73;;
74100;SDS011;62462;52.530;21.682;2023-03-23T13:40:58;8.23;;;1.88;;
74100;SDS011;62462;52.530;21.682;2023-03-23T13:43:32;2.00;;;1.60;;
74100;SDS011;62462;52.530;21.682;2023-03-23T13:46:10;4.35;;;1.95;;
74100;SDS011;62462;52.530;21.682;2023-03-23T13:48:43;3.47;;;2.15;;
74100;SDS011;62462;52.530;21.682;2023-03-23T13:56:51;4.55;;;2.47;;
74100;SDS011;62462;52.530;21.682;2023-03-23T14:04:41;6.15;;;2.40;;
74100;SDS011;62462;52.530;21.682;2023-03-23T14:07:08;4.50;;;2.42;;
74100;SDS011;62462;52.530;21.682;2023-03-23T14:09:39;4.18;;;2.20;;
74100;SDS011;62462;52.530;21.682;2023-03-23T14:12:24;5.53;;;2.42;;
74100;SDS011;62462;52.530;21.682;2023-03-23T14:14:56;6.07;;;1.90;;
74100;SDS011;62462;52.530;21.682;2023-03-23T14:17:29;4.43;;;2.60;;
74100;SDS011;62462;52.530;21.682;2023-03-23T14:19:59;5.93;;;2.22;;
74100;SDS011;62462;52.530;21.682;2023-03-23T14:22:35;4.85;;;2.25;;
74100;SDS011;62462;52.530;21.682;2023-03-23T14:25:13;4.20;;;2.03;;
74100;SDS011;62462;52.530;21.682;2023-03-23T14:27:42;3.70;;;2.28;;
74100;SDS011;62462;52.530;21.682;2023-03-23T14:30:18;4.95;;;2.95;;
74100;SDS011;62462;52.530;21.682;2023-03-23T14:32:46;3.47;;;2.33;;
74100;SDS011;62462;52.530;21.682;2023-03-23T14:35:27;3.05;;;2.30;;
74100;SDS011;62462;52.530;21.682;2023-03-23T14:38:02;5.07;;;2.70;;
74100;SDS011;62462;52.530;21.682;2023-03-23T14:40:30;2.88;;;2.20;;
74100;SDS011;62462;52.530;21.682;2023-03-23T14:42:56;4.15;;;2.50;;
74100;SDS011;62462;52.530;21.682;2023-03-23T14:45:24;6.35;;;2.92;;
74100;SDS011;62462;52.530;21.682;2023-03-23T14:47:52;4.82;;;2.58;;
74100;SDS011;62462;52.530;21.682;2023-03-23T14:53:13;6.60;;;2.67;;
74100;SDS011;62462;52.530;21.682;2023-03-23T14:56:02;5.15;;;2.50;;
74100;SDS011;62462;52.530;21.682;2023-03-23T14:58:34;5.00;;;2.50;;
74100;SDS011;62462;52.530;21.682;2023-03-23T15:03:32;5.07;;;2.45;;
74100;SDS011;62462;52.530;21.682;2023-03-23T15:06:04;6.03;;;2.30;;
74100;SDS011;62462;52.530;21.682;2023-03-23T15:08:35;3.63;;;2.25;;
74100;SDS011;62462;52.530;21.682;2023-03-23T15:13:26;7.10;;;2.33;;
74100;SDS011;62462;52.530;21.682;2023-03-23T15:16:00;4.88;;;2.40;;
74100;SDS011;62462;52.530;21.682;2023-03-23T15:18:33;4.25;;;2.50;;
74100;SDS011;62462;52.530;21.682;2023-03-23T15:21:11;5.53;;;2.20;;
74100;SDS011;62462;52.530;21.682;2023-03-23T15:23:46;4.15;;;2.40;;
74100;SDS011;62462;52.530;21.682;2023-03-23T15:26:24;6.75;;;2.40;;
74100;SDS011;62462;52.530;21.682;2023-03-23T15:29:03;4.00;;;2.63;;
74100;SDS011;62462;52.530;21.682;2023-03-23T15:31:53;4.82;;;2.72;;
74100;SDS011;62462;52.530;21.682;2023-03-23T15:34:24;4.15;;;2.20;;
74100;SDS011;62462;52.530;21.682;2023-03-23T15:36:57;4.15;;;2.63;;
74100;SDS011;62462;52.530;21.682;2023-03-23T15:39:25;5.10;;;2.60;;
74100;SDS011;62462;52.530;21.682;2023-03-23T15:41:52;5.85;;;3.30;;
74100;SDS011;62462;52.530;21.682;2023-03-23T15:44:27;5.22;;;3.50;;
74100;SDS011;62462;52.530;21.682;2023-03-23T15:47:03;6.07;;;3.22;;
74100;SDS011;62462;52.530;21.682;2023-03-23T15:49:40;8.00;;;3.80;;
74100;SDS011;62462;52.530;21.682;2023-03-23T15:52:10;7.32;;;4.13;;
74100;SDS011;62462;52.530;21.682;2023-03-23T15:54:38;6.55;;;3.50;;
74100;SDS011;62462;52.530;21.682;2023-03-23T15:57:10;5.35;;;3.25;;
74100;SDS011;62462;52.530;21.682;2023-03-23T15:59:37;4.25;;;2.75;;
74100;SDS011;62462;52.530;21.682;2023-03-23T16:02:03;3.38;;;2.40;;
74100;SDS011;62462;52.530;21.682;2023-03-23T16:04:29;7.68;;;4.28;;
74100;SDS011;62462;52.530;21.682;2023-03-23T16:06:56;8.43;;;4.30;;
74100;SDS011;62462;52.530;21.682;2023-03-23T16:09:23;4.55;;;2.40;;
74100;SDS011;62462;52.530;21.682;2023-03-23T16:11:49;7.43;;;3.00;;
74100;SDS011;62462;52.530;21.682;2023-03-23T16:14:15;11.02;;;3.60;;
74100;SDS011;62462;52.530;21.682;2023-03-23T16:16:48;4.63;;;3.40;;
74100;SDS011;62462;52.530;21.682;2023-03-23T16:19:17;6.57;;;3.00;;
74100;SDS011;62462;52.530;21.682;2023-03-23T16:21:44;6.47;;;3.63;;
74100;SDS011;62462;52.530;21.682;2023-03-23T16:24:10;5.93;;;3.25;;
74100;SDS011;62462;52.530;21.682;2023-03-23T16:26:36;5.82;;;3.25;;
74100;SDS011;62462;52.530;21.682;2023-03-23T16:29:08;6.50;;;3.35;;
74100;SDS011;62462;52.530;21.682;2023-03-23T16:31:36;6.18;;;3.22;;
74100;SDS011;62462;52.530;21.682;2023-03-23T16:34:02;8.73;;;5.28;;
74100;SDS011;62462;52.530;21.682;2023-03-23T16:36:28;10.50;;;5.85;;
74100;SDS011;62462;52.530;21.682;2023-03-23T16:38:54;6.22;;;3.90;;
74100;SDS011;62462;52.530;21.682;2023-03-23T16:41:20;13.07;;;7.57;;
74100;SDS011;62462;52.530;21.682;2023-03-23T16:43:46;10.43;;;4.95;;
74100;SDS011;62462;52.530;21.682;2023-03-23T16:46:12;6.15;;;4.00;;
74100;SDS011;62462;52.530;21.682;2023-03-23T16:48:38;6.75;;;3.67;;
74100;SDS011;62462;52.530;21.682;2023-03-23T16:51:04;6.43;;;4.13;;
74100;SDS011;62462;52.530;21.682;2023-03-23T16:53:31;11.73;;;5.88;;